McCullers, North Carolina
Current Conditions -  °F | °C
As of 4:51 PM on Wednesday 26 Nov 2014 (Local Time) from KRDU Reporting Station
Light Rain Light Rain  
Wind Chill: 40°   Ceiling: 5000
Heat Index: 43°   Visibility: 10mi
Dew Point: 37°   Wind: 5mph
Humidity: 80%   Direction: 320°NW
Pressure: 30"   Gusts: NA
Location:  35.6675°N, 78.6629°W
Report Text: KRDU 262151Z 32004KT 10SM -RA FEW010 SCT014 BKN050 06/03 A3000 RMK AO2 RAB42 SLP159 P0000 T00610028 $
Loading
Personal Weather Stations






























Interactive Weather Map New forecast layout! Learn more

10-Day Weather Forecast

Advertisements
Track Severe Weather on mobile